sensor_id;sensor_type;location;lat;lon;timestamp;pressure;altitude;pressure_sealevel;temperature;humidity
80202;BME280;69521;54.454;9.928;2023-05-20T00:01:28;102859.31;;;8.16;79.16
80202;BME280;69521;54.454;9.928;2023-05-20T00:03:54;102868.31;;;8.15;79.44
80202;BME280;69521;54.454;9.928;2023-05-20T00:06:19;102850.25;;;8.19;79.89
80202;BME280;69521;54.454;9.928;2023-05-20T00:08:45;102859.59;;;8.29;80.02
80202;BME280;69521;54.454;9.928;2023-05-20T00:11:10;102857.56;;;8.34;78.63
80202;BME280;69521;54.454;9.928;2023-05-20T00:13:35;102852.47;;;8.28;78.76
80202;BME280;69521;54.454;9.928;2023-05-20T00:16:01;102852.94;;;8.19;79.54
80202;BME280;69521;54.454;9.928;2023-05-20T00:18:26;102839.78;;;8.14;79.13
80202;BME280;69521;54.454;9.928;2023-05-20T00:20:51;102852.63;;;8.25;79.20
80202;BME280;69521;54.454;9.928;2023-05-20T00:23:18;102859.81;;;8.24;79.63
80202;BME280;69521;54.454;9.928;2023-05-20T00:25:43;102866.84;;;8.27;78.62
80202;BME280;69521;54.454;9.928;2023-05-20T00:28:09;102857.28;;;8.21;79.57
80202;BME280;69521;54.454;9.928;2023-05-20T00:30:34;102848.28;;;8.22;78.77
80202;BME280;69521;54.454;9.928;2023-05-20T00:33:00;102857.06;;;8.26;77.92
80202;BME280;69521;54.454;9.928;2023-05-20T00:35:25;102845.69;;;8.21;79.62
80202;BME280;69521;54.454;9.928;2023-05-20T00:37:50;102849.00;;;8.26;78.27
80202;BME280;69521;54.454;9.928;2023-05-20T00:40:16;102859.03;;;8.22;79.74
80202;BME280;69521;54.454;9.928;2023-05-20T00:42:42;102856.56;;;8.18;79.42
80202;BME280;69521;54.454;9.928;2023-05-20T00:45:07;102847.72;;;8.16;80.95
80202;BME280;69521;54.454;9.928;2023-05-20T00:47:34;102851.84;;;8.23;80.16
80202;BME280;69521;54.454;9.928;2023-05-20T00:50:03;102840.31;;;8.21;80.40
80202;BME280;69521;54.454;9.928;2023-05-20T00:52:30;102855.97;;;8.30;81.40
80202;BME280;69521;54.454;9.928;2023-05-20T00:54:57;102846.00;;;8.15;81.50
80202;BME280;69521;54.454;9.928;2023-05-20T00:57:23;102851.22;;;8.18;82.13
80202;BME280;69521;54.454;9.928;2023-05-20T00:59:49;102839.63;;;8.17;80.66
80202;BME280;69521;54.454;9.928;2023-05-20T01:02:15;102847.72;;;8.16;82.23
80202;BME280;69521;54.454;9.928;2023-05-20T01:04:40;102842.53;;;8.13;81.38
80202;BME280;69521;54.454;9.928;2023-05-20T01:07:12;102835.81;;;8.04;81.84
80202;BME280;69521;54.454;9.928;2023-05-20T01:09:38;102842.91;;;8.05;81.46
80202;BME280;69521;54.454;9.928;2023-05-20T01:12:13;102845.66;;;8.04;82.32
80202;BME280;69521;54.454;9.928;2023-05-20T01:14:49;102830.44;;;8.04;81.76
80202;BME280;69521;54.454;9.928;2023-05-20T01:17:15;102840.94;;;8.09;80.64
80202;BME280;69521;54.454;9.928;2023-05-20T01:19:45;102837.88;;;8.16;80.63
80202;BME280;69521;54.454;9.928;2023-05-20T01:22:12;102834.25;;;8.17;81.22
80202;BME280;69521;54.454;9.928;2023-05-20T01:24:40;102840.72;;;8.13;80.39
80202;BME280;69521;54.454;9.928;2023-05-20T01:27:06;102836.75;;;8.03;81.66
80202;BME280;69521;54.454;9.928;2023-05-20T01:29:35;102830.22;;;8.09;80.51
80202;BME280;69521;54.454;9.928;2023-05-20T01:32:06;102833.13;;;8.04;80.65
80202;BME280;69521;54.454;9.928;2023-05-20T01:34:34;102842.97;;;8.04;81.66
80202;BME280;69521;54.454;9.928;2023-05-20T01:37:03;102844.72;;;8.05;79.91
80202;BME280;69521;54.454;9.928;2023-05-20T01:39:30;102840.75;;;7.94;79.56
80202;BME280;69521;54.454;9.928;2023-05-20T01:41:56;102848.50;;;8.01;80.53
80202;BME280;69521;54.454;9.928;2023-05-20T01:44:22;102850.94;;;8.05;79.85
80202;BME280;69521;54.454;9.928;2023-05-20T01:46:48;102829.09;;;7.95;80.96
80202;BME280;69521;54.454;9.928;2023-05-20T01:49:14;102831.47;;;8.02;79.79
80202;BME280;69521;54.454;9.928;2023-05-20T01:51:39;102841.03;;;8.07;79.87
80202;BME280;69521;54.454;9.928;2023-05-20T01:54:05;102825.25;;;8.01;79.38
80202;BME280;69521;54.454;9.928;2023-05-20T01:56:30;102826.25;;;7.98;80.04
80202;BME280;69521;54.454;9.928;2023-05-20T01:58:56;102826.19;;;8.00;79.23
80202;BME280;69521;54.454;9.928;2023-05-20T02:01:21;102823.28;;;8.05;79.41
80202;BME280;69521;54.454;9.928;2023-05-20T02:03:46;102823.28;;;8.05;79.97
80202;BME280;69521;54.454;9.928;2023-05-20T02:06:12;102826.91;;;8.04;79.48
80202;BME280;69521;54.454;9.928;2023-05-20T02:08:37;102823.56;;;7.98;79.50
80202;BME280;69521;54.454;9.928;2023-05-20T02:11:02;102813.16;;;7.92;78.70
80202;BME280;69521;54.454;9.928;2023-05-20T02:13:28;102814.75;;;7.96;79.01
80202;BME280;69521;54.454;9.928;2023-05-20T02:15:54;102810.13;;;7.81;79.08
80202;BME280;69521;54.454;9.928;2023-05-20T02:18:19;102808.91;;;7.88;78.67
80202;BME280;69521;54.454;9.928;2023-05-20T02:20:45;102824.34;;;7.83;79.46
80202;BME280;69521;54.454;9.928;2023-05-20T02:23:11;102828.44;;;7.90;79.25
80202;BME280;69521;54.454;9.928;2023-05-20T02:25:36;102809.06;;;7.85;79.55
80202;BME280;69521;54.454;9.928;2023-05-20T02:28:01;102816.38;;;7.82;79.40
80202;BME280;69521;54.454;9.928;2023-05-20T02:30:30;102803.47;;;7.71;79.71
80202;BME280;69521;54.454;9.928;2023-05-20T02:32:55;102805.72;;;7.80;79.52
80202;BME280;69521;54.454;9.928;2023-05-20T02:35:22;102804.34;;;7.90;78.65
80202;BME280;69521;54.454;9.928;2023-05-20T02:37:47;102816.63;;;7.94;78.85
80202;BME280;69521;54.454;9.928;2023-05-20T02:40:12;102818.44;;;7.94;78.89
80202;BME280;69521;54.454;9.928;2023-05-20T02:42:39;102813.47;;;7.86;78.97
80202;BME280;69521;54.454;9.928;2023-05-20T02:45:05;102819.16;;;7.97;78.72
80202;BME280;69521;54.454;9.928;2023-05-20T02:47:31;102813.88;;;7.96;78.18
80202;BME280;69521;54.454;9.928;2023-05-20T02:49:56;102821.84;;;7.97;77.77
80202;BME280;69521;54.454;9.928;2023-05-20T02:52:21;102807.50;;;7.98;78.55
80202;BME280;69521;54.454;9.928;2023-05-20T02:54:47;102808.75;;;7.91;79.02
80202;BME280;69521;54.454;9.928;2023-05-20T02:57:12;102799.69;;;7.94;78.35
80202;BME280;69521;54.454;9.928;2023-05-20T02:59:37;102794.97;;;7.99;77.64
80202;BME280;69521;54.454;9.928;2023-05-20T03:02:03;102810.50;;;8.10;77.75
80202;BME280;69521;54.454;9.928;2023-05-20T03:04:29;102814.28;;;8.06;78.08
80202;BME280;69521;54.454;9.928;2023-05-20T03:06:55;102814.28;;;8.06;77.85
80202;BME280;69521;54.454;9.928;2023-05-20T03:09:22;102800.72;;;8.09;77.34
80202;BME280;69521;54.454;9.928;2023-05-20T03:11:48;102802.69;;;8.05;77.78
80202;BME280;69521;54.454;9.928;2023-05-20T03:14:13;102806.31;;;8.04;76.89
80202;BME280;69521;54.454;9.928;2023-05-20T03:16:39;102807.97;;;8.07;77.41
80202;BME280;69521;54.454;9.928;2023-05-20T03:19:04;102813.03;;;8.13;76.31
80202;BME280;69521;54.454;9.928;2023-05-20T03:21:29;102813.84;;;8.15;76.91
80202;BME280;69521;54.454;9.928;2023-05-20T03:23:55;102826.06;;;8.20;76.56
80202;BME280;69521;54.454;9.928;2023-05-20T03:26:20;102800.09;;;8.04;76.44
80202;BME280;69521;54.454;9.928;2023-05-20T03:28:47;102798.50;;;7.99;77.41
80202;BME280;69521;54.454;9.928;2023-05-20T03:31:12;102819.19;;;8.15;76.79
80202;BME280;69521;54.454;9.928;2023-05-20T03:33:37;102810.91;;;8.19;77.39
80202;BME280;69521;54.454;9.928;2023-05-20T03:36:03;102801.84;;;8.22;77.74
80202;BME280;69521;54.454;9.928;2023-05-20T03:38:29;102806.66;;;8.32;76.98
80202;BME280;69521;54.454;9.928;2023-05-20T03:40:54;102813.47;;;8.40;76.90
80202;BME280;69521;54.454;9.928;2023-05-20T03:43:20;102814.03;;;8.46;77.14
80202;BME280;69521;54.454;9.928;2023-05-20T03:45:45;102819.16;;;8.51;77.18
80202;BME280;69521;54.454;9.928;2023-05-20T03:48:10;102823.66;;;8.50;78.15
80202;BME280;69521;54.454;9.928;2023-05-20T03:50:36;102813.47;;;8.40;79.13
80202;BME280;69521;54.454;9.928;2023-05-20T03:53:01;102811.91;;;8.36;79.77
80202;BME280;69521;54.454;9.928;2023-05-20T03:55:26;102818.75;;;8.58;77.36
80202;BME280;69521;54.454;9.928;2023-05-20T03:57:52;102806.53;;;8.53;79.25
80202;BME280;69521;54.454;9.928;2023-05-20T04:00:17;102810.41;;;8.65;77.93
80202;BME280;69521;54.454;9.928;2023-05-20T04:02:42;102806.22;;;8.76;77.36
80202;BME280;69521;54.454;9.928;2023-05-20T04:05:08;102816.16;;;8.91;76.87
80202;BME280;69521;54.454;9.928;2023-05-20T04:07:34;102810.88;;;8.90;77.95
80202;BME280;69521;54.454;9.928;2023-05-20T04:10:00;102815.28;;;8.91;77.69
80202;BME280;69521;54.454;9.928;2023-05-20T04:12:25;102814.34;;;8.92;79.42
80202;BME280;69521;54.454;9.928;2023-05-20T04:14:56;102803.44;;;8.95;78.34
80202;BME280;69521;54.454;9.928;2023-05-20T04:17:22;102807.53;;;9.02;78.56
80202;BME280;69521;54.454;9.928;2023-05-20T04:19:47;102806.06;;;9.12;78.95
80202;BME280;69521;54.454;9.928;2023-05-20T04:22:13;102803.06;;;9.18;77.97
80202;BME280;69521;54.454;9.928;2023-05-20T04:24:38;102791.69;;;9.13;78.23
80202;BME280;69521;54.454;9.928;2023-05-20T04:27:03;102806.53;;;9.20;78.16
80202;BME280;69521;54.454;9.928;2023-05-20T04:29:30;102802.63;;;9.26;77.83
80202;BME280;69521;54.454;9.928;2023-05-20T04:31:58;102807.91;;;9.27;78.00
80202;BME280;69521;54.454;9.928;2023-05-20T04:34:28;102810.72;;;9.42;77.19
80202;BME280;69521;54.454;9.928;2023-05-20T04:36:53;102802.72;;;9.40;77.02
80202;BME280;69521;54.454;9.928;2023-05-20T04:39:19;102803.44;;;9.44;77.17
80202;BME280;69521;54.454;9.928;2023-05-20T04:41:44;102793.63;;;9.43;76.78
80202;BME280;69521;54.454;9.928;2023-05-20T04:44:12;102795.53;;;9.41;77.88
80202;BME280;69521;54.454;9.928;2023-05-20T04:46:37;102787.31;;;9.44;75.99
80202;BME280;69521;54.454;9.928;2023-05-20T04:49:04;102790.44;;;9.52;76.04
80202;BME280;69521;54.454;9.928;2023-05-20T04:51:29;102794.94;;;9.51;77.49
80202;BME280;69521;54.454;9.928;2023-05-20T04:53:54;102791.75;;;9.61;76.36
80202;BME280;69521;54.454;9.928;2023-05-20T04:56:20;102786.13;;;9.65;76.23
80202;BME280;69521;54.454;9.928;2023-05-20T04:58:45;102794.44;;;9.61;76.17
80202;BME280;69521;54.454;9.928;2023-05-20T05:01:11;102785.06;;;9.52;77.17
80202;BME280;69521;54.454;9.928;2023-05-20T05:03:36;102793.94;;;9.54;76.55
80202;BME280;69521;54.454;9.928;2023-05-20T05:06:01;102797.53;;;9.53;76.47
80202;BME280;69521;54.454;9.928;2023-05-20T05:08:27;102797.50;;;9.54;76.37
80202;BME280;69521;54.454;9.928;2023-05-20T05:10:52;102796.34;;;9.58;77.37
80202;BME280;69521;54.454;9.928;2023-05-20T05:13:17;102803.28;;;9.78;76.64
80202;BME280;69521;54.454;9.928;2023-05-20T05:15:43;102791.50;;;9.81;76.77
80202;BME280;69521;54.454;9.928;2023-05-20T05:18:08;102804.50;;;9.88;76.87
80202;BME280;69521;54.454;9.928;2023-05-20T05:20:33;102798.94;;;9.92;76.90
80202;BME280;69521;54.454;9.928;2023-05-20T05:22:59;102797.03;;;9.94;76.78
80202;BME280;69521;54.454;9.928;2023-05-20T05:25:24;102795.13;;;9.96;77.26
80202;BME280;69521;54.454;9.928;2023-05-20T05:27:50;102790.69;;;9.95;76.50
80202;BME280;69521;54.454;9.928;2023-05-20T05:30:15;102802.22;;;9.97;76.79
80202;BME280;69521;54.454;9.928;2023-05-20T05:32:41;102795.63;;;10.02;76.09
80202;BME280;69521;54.454;9.928;2023-05-20T05:35:07;102801.59;;;10.07;75.83
80202;BME280;69521;54.454;9.928;2023-05-20T05:37:32;102802.09;;;10.14;76.33
80202;BME280;69521;54.454;9.928;2023-05-20T05:39:58;102798.63;;;10.12;76.27
80202;BME280;69521;54.454;9.928;2023-05-20T05:42:23;102804.47;;;10.20;75.92
80202;BME280;69521;54.454;9.928;2023-05-20T05:44:48;102794.28;;;10.25;76.05
80202;BME280;69521;54.454;9.928;2023-05-20T05:47:14;102793.63;;;10.21;75.36
80202;BME280;69521;54.454;9.928;2023-05-20T05:49:39;102801.13;;;10.31;75.80
80202;BME280;69521;54.454;9.928;2023-05-20T05:52:05;102803.66;;;10.34;77.65
80202;BME280;69521;54.454;9.928;2023-05-20T05:54:30;102808.06;;;10.35;75.82
80202;BME280;69521;54.454;9.928;2023-05-20T05:56:56;102802.28;;;10.27;75.24
80202;BME280;69521;54.454;9.928;2023-05-20T05:59:21;102803.75;;;10.16;74.70
80202;BME280;69521;54.454;9.928;2023-05-20T06:01:47;102799.41;;;10.14;75.22
80202;BME280;69521;54.454;9.928;2023-05-20T06:04:12;102804.59;;;10.17;74.66
80202;BME280;69521;54.454;9.928;2023-05-20T06:06:37;102813.31;;;10.22;75.67
80202;BME280;69521;54.454;9.928;2023-05-20T06:09:03;102797.16;;;10.22;74.02
80202;BME280;69521;54.454;9.928;2023-05-20T06:11:28;102804.38;;;10.21;74.28
80202;BME280;69521;54.454;9.928;2023-05-20T06:13:54;102818.41;;;10.42;73.84
80202;BME280;69521;54.454;9.928;2023-05-20T06:16:19;102811.19;;;10.43;73.87
80202;BME280;69521;54.454;9.928;2023-05-20T06:18:45;102817.06;;;10.49;74.03
80202;BME280;69521;54.454;9.928;2023-05-20T06:21:11;102816.34;;;10.62;74.18
80202;BME280;69521;54.454;9.928;2023-05-20T06:23:36;102813.19;;;10.69;72.88
80202;BME280;69521;54.454;9.928;2023-05-20T06:26:02;102825.00;;;10.67;73.60
80202;BME280;69521;54.454;9.928;2023-05-20T06:28:28;102820.97;;;10.74;73.13
80202;BME280;69521;54.454;9.928;2023-05-20T06:30:54;102814.53;;;10.76;73.33
80202;BME280;69521;54.454;9.928;2023-05-20T06:33:22;102813.09;;;10.85;72.60
80202;BME280;69521;54.454;9.928;2023-05-20T06:35:50;102810.13;;;10.90;73.84
80202;BME280;69521;54.454;9.928;2023-05-20T06:38:19;102805.59;;;10.90;73.13
80202;BME280;69521;54.454;9.928;2023-05-20T06:40:51;102815.63;;;11.02;73.83
80202;BME280;69521;54.454;9.928;2023-05-20T06:43:17;102795.31;;;11.11;73.31
80202;BME280;69521;54.454;9.928;2023-05-20T06:45:43;102802.53;;;11.25;71.92
80202;BME280;69521;54.454;9.928;2023-05-20T06:48:09;102813.72;;;11.33;72.89
80202;BME280;69521;54.454;9.928;2023-05-20T06:50:35;102801.88;;;11.35;72.35
80202;BME280;69521;54.454;9.928;2023-05-20T06:53:00;102800.53;;;11.42;73.20
80202;BME280;69521;54.454;9.928;2023-05-20T06:55:26;102809.81;;;11.65;71.79
80202;BME280;69521;54.454;9.928;2023-05-20T06:57:52;102809.31;;;11.73;73.17
80202;BME280;69521;54.454;9.928;2023-05-20T07:00:17;102800.00;;;11.78;71.56
80202;BME280;69521;54.454;9.928;2023-05-20T07:02:43;102800.16;;;11.75;70.97
80202;BME280;69521;54.454;9.928;2023-05-20T07:05:08;102804.59;;;11.76;70.98
80202;BME280;69521;54.454;9.928;2023-05-20T07:07:34;102806.63;;;11.73;72.64
80202;BME280;69521;54.454;9.928;2023-05-20T07:09:59;102809.00;;;11.92;70.78
80202;BME280;69521;54.454;9.928;2023-05-20T07:12:25;102810.69;;;12.07;72.50
80202;BME280;69521;54.454;9.928;2023-05-20T07:14:50;102802.06;;;11.88;72.05
80202;BME280;69521;54.454;9.928;2023-05-20T07:17:16;102798.59;;;12.12;72.79
80202;BME280;69521;54.454;9.928;2023-05-20T07:19:41;102802.09;;;12.15;72.76
80202;BME280;69521;54.454;9.928;2023-05-20T07:22:07;102809.47;;;12.25;72.58
80202;BME280;69521;54.454;9.928;2023-05-20T07:24:32;102804.47;;;12.19;71.66
80202;BME280;69521;54.454;9.928;2023-05-20T07:26:57;102811.66;;;12.33;71.40
80202;BME280;69521;54.454;9.928;2023-05-20T07:29:23;102796.25;;;12.48;71.43
80202;BME280;69521;54.454;9.928;2023-05-20T07:31:49;102781.31;;;12.42;71.32
80202;BME280;69521;54.454;9.928;2023-05-20T07:34:14;102792.97;;;12.30;72.17
80202;BME280;69521;54.454;9.928;2023-05-20T07:36:40;102787.31;;;12.72;72.45
80202;BME280;69521;54.454;9.928;2023-05-20T07:39:06;102773.03;;;12.70;70.47
80202;BME280;69521;54.454;9.928;2023-05-20T07:41:32;102803.59;;;12.71;71.67
80202;BME280;69521;54.454;9.928;2023-05-20T07:43:58;102779.31;;;12.84;70.00
80202;BME280;69521;54.454;9.928;2023-05-20T07:46:23;102777.03;;;12.90;70.38
80202;BME280;69521;54.454;9.928;2023-05-20T07:48:49;102792.31;;;13.17;69.81
80202;BME280;69521;54.454;9.928;2023-05-20T07:51:14;102783.41;;;13.15;70.80
80202;BME280;69521;54.454;9.928;2023-05-20T07:53:40;102787.97;;;13.01;70.26
80202;BME280;69521;54.454;9.928;2023-05-20T07:56:05;102770.44;;;12.94;71.78
80202;BME280;69521;54.454;9.928;2023-05-20T07:58:31;102793.38;;;13.27;70.93
80202;BME280;69521;54.454;9.928;2023-05-20T08:00:56;102782.16;;;13.57;70.47
80202;BME280;69521;54.454;9.928;2023-05-20T08:03:22;102788.28;;;13.71;70.20
80202;BME280;69521;54.454;9.928;2023-05-20T08:05:47;102792.94;;;13.69;70.43
80202;BME280;69521;54.454;9.928;2023-05-20T08:08:13;102785.00;;;13.79;71.28
80202;BME280;69521;54.454;9.928;2023-05-20T08:10:38;102790.13;;;13.71;69.18
80202;BME280;69521;54.454;9.928;2023-05-20T08:13:03;102786.81;;;14.15;67.98
80202;BME280;69521;54.454;9.928;2023-05-20T08:15:29;102797.41;;;14.18;67.61
80202;BME280;69521;54.454;9.928;2023-05-20T08:17:54;102787.09;;;13.99;68.47
80202;BME280;69521;54.454;9.928;2023-05-20T08:20:20;102796.81;;;14.50;67.76
80202;BME280;69521;54.454;9.928;2023-05-20T08:22:45;102783.44;;;14.71;65.57
80202;BME280;69521;54.454;9.928;2023-05-20T08:25:11;102779.44;;;15.10;68.05
80202;BME280;69521;54.454;9.928;2023-05-20T08:27:36;102781.09;;;14.66;65.87
80202;BME280;69521;54.454;9.928;2023-05-20T08:30:03;102777.41;;;14.67;65.95
80202;BME280;69521;54.454;9.928;2023-05-20T08:32:31;102763.50;;;14.72;65.77
80202;BME280;69521;54.454;9.928;2023-05-20T08:35:50;102787.06;;;15.05;66.29
80202;BME280;69521;54.454;9.928;2023-05-20T08:41:51;102774.50;;;15.59;63.94
80202;BME280;69521;54.454;9.928;2023-05-20T08:58:28;102757.69;;;15.77;62.32
80202;BME280;69521;54.454;9.928;2023-05-20T09:00:56;102758.34;;;16.01;61.72
80202;BME280;69521;54.454;9.928;2023-05-20T09:03:42;102758.72;;;16.29;60.40
80202;BME280;69521;54.454;9.928;2023-05-20T09:06:08;102751.50;;;15.86;63.27
80202;BME280;69521;54.454;9.928;2023-05-20T09:08:44;102757.19;;;15.83;60.78
80202;BME280;69521;54.454;9.928;2023-05-20T09:11:16;102759.69;;;16.07;63.64
80202;BME280;69521;54.454;9.928;2023-05-20T09:13:44;102749.97;;;16.25;59.12
80202;BME280;69521;54.454;9.928;2023-05-20T09:26:31;102751.09;;;16.43;59.49
80202;BME280;69521;54.454;9.928;2023-05-20T09:29:27;102771.75;;;16.14;58.93
80202;BME280;69521;54.454;9.928;2023-05-20T09:32:13;102751.03;;;16.34;59.37
80202;BME280;69521;54.454;9.928;2023-05-20T09:35:00;102746.75;;;16.52;61.10
80202;BME280;69521;54.454;9.928;2023-05-20T09:38:02;102754.25;;;16.07;61.71
80202;BME280;69521;54.454;9.928;2023-05-20T09:40:56;102767.34;;;16.34;61.02
80202;BME280;69521;54.454;9.928;2023-05-20T09:43:34;102738.09;;;15.73;62.82
80202;BME280;69521;54.454;9.928;2023-05-20T09:46:05;102750.28;;;16.11;61.18
80202;BME280;69521;54.454;9.928;2023-05-20T09:48:33;102758.75;;;15.97;61.99
80202;BME280;69521;54.454;9.928;2023-05-20T09:54:38;102756.91;;;16.50;62.93
80202;BME280;69521;54.454;9.928;2023-05-20T09:57:15;102738.50;;;16.21;60.20
80202;BME280;69521;54.454;9.928;2023-05-20T10:03:20;102735.69;;;16.65;61.58
80202;BME280;69521;54.454;9.928;2023-05-20T10:35:52;102725.75;;;16.54;50.03
80202;BME280;69521;54.454;9.928;2023-05-20T10:56:57;102710.75;;;15.43;53.68
80202;BME280;69521;54.454;9.928;2023-05-20T11:03:46;102714.09;;;15.57;53.87
80202;BME280;69521;54.454;9.928;2023-05-20T11:13:59;102686.41;;;16.28;54.26
80202;BME280;69521;54.454;9.928;2023-05-20T11:23:29;102665.84;;;15.72;54.98
80202;BME280;69521;54.454;9.928;2023-05-20T11:29:30;102669.31;;;15.95;57.19
80202;BME280;69521;54.454;9.928;2023-05-20T11:32:54;102657.00;;;16.12;55.63
80202;BME280;69521;54.454;9.928;2023-05-20T11:35:53;102654.16;;;16.13;56.43
80202;BME280;69521;54.454;9.928;2023-05-20T11:38:25;102665.31;;;16.41;55.91
80202;BME280;69521;54.454;9.928;2023-05-20T11:40:53;102649.66;;;16.23;55.97
80202;BME280;69521;54.454;9.928;2023-05-20T11:43:22;102662.75;;;16.18;56.86
80202;BME280;69521;54.454;9.928;2023-05-20T11:46:05;102653.28;;;16.13;56.40
80202;BME280;69521;54.454;9.928;2023-05-20T11:49:15;102667.66;;;16.04;56.75
80202;BME280;69521;54.454;9.928;2023-05-20T11:51:37;102651.78;;;15.56;57.72
80202;BME280;69521;54.454;9.928;2023-05-20T11:54:08;102657.38;;;15.43;58.39
80202;BME280;69521;54.454;9.928;2023-05-20T11:57:17;102667.97;;;15.69;58.53
80202;BME280;69521;54.454;9.928;2023-05-20T12:00:00;102647.63;;;15.52;57.07
80202;BME280;69521;54.454;9.928;2023-05-20T12:03:10;102650.56;;;15.71;53.67
80202;BME280;69521;54.454;9.928;2023-05-20T12:05:41;102634.03;;;15.74;53.03
80202;BME280;69521;54.454;9.928;2023-05-20T12:08:45;102635.34;;;16.01;54.67
80202;BME280;69521;54.454;9.928;2023-05-20T12:11:23;102651.09;;;16.07;53.31
80202;BME280;69521;54.454;9.928;2023-05-20T12:14:20;102653.28;;;16.85;52.24
80202;BME280;69521;54.454;9.928;2023-05-20T12:16:45;102631.25;;;16.78;50.73
80202;BME280;69521;54.454;9.928;2023-05-20T12:19:16;102634.00;;;16.88;50.25
80202;BME280;69521;54.454;9.928;2023-05-20T12:21:50;102627.41;;;16.91;45.88
80202;BME280;69521;54.454;9.928;2023-05-20T12:24:21;102622.03;;;17.10;48.55
80202;BME280;69521;54.454;9.928;2023-05-20T12:26:46;102636.00;;;17.65;45.33
80202;BME280;69521;54.454;9.928;2023-05-20T12:29:11;102633.44;;;17.73;46.58
80202;BME280;69521;54.454;9.928;2023-05-20T12:31:44;102616.84;;;17.66;46.96
80202;BME280;69521;54.454;9.928;2023-05-20T12:34:19;102620.22;;;17.97;46.48
80202;BME280;69521;54.454;9.928;2023-05-20T12:37:27;102615.56;;;18.36;46.92
80202;BME280;69521;54.454;9.928;2023-05-20T12:40:25;102615.28;;;18.39;48.39
80202;BME280;69521;54.454;9.928;2023-05-20T12:46:04;102624.41;;;17.92;47.79
80202;BME280;69521;54.454;9.928;2023-05-20T12:48:33;102608.34;;;17.60;47.70
80202;BME280;69521;54.454;9.928;2023-05-20T12:55:04;102624.06;;;18.70;48.45
80202;BME280;69521;54.454;9.928;2023-05-20T12:57:43;102612.66;;;18.48;47.53
80202;BME280;69521;54.454;9.928;2023-05-20T13:00:12;102608.03;;;18.58;47.10
80202;BME280;69521;54.454;9.928;2023-05-20T13:02:40;102602.94;;;18.45;46.96
80202;BME280;69521;54.454;9.928;2023-05-20T13:05:09;102611.63;;;18.58;46.80
80202;BME280;69521;54.454;9.928;2023-05-20T13:07:54;102606.13;;;18.31;47.02
80202;BME280;69521;54.454;9.928;2023-05-20T13:10:22;102612.63;;;18.57;46.30
80202;BME280;69521;54.454;9.928;2023-05-20T13:13:05;102601.13;;;18.17;47.92
80202;BME280;69521;54.454;9.928;2023-05-20T13:15:51;102605.00;;;18.61;47.79
80202;BME280;69521;54.454;9.928;2023-05-20T13:18:54;102602.75;;;18.00;46.81
80202;BME280;69521;54.454;9.928;2023-05-20T13:28:37;102597.53;;;18.16;47.40
80202;BME280;69521;54.454;9.928;2023-05-20T13:31:16;102603.56;;;18.20;46.67
80202;BME280;69521;54.454;9.928;2023-05-20T13:33:41;102601.63;;;18.49;46.44
80202;BME280;69521;54.454;9.928;2023-05-20T13:36:34;102594.16;;;19.06;44.84
80202;BME280;69521;54.454;9.928;2023-05-20T13:39:00;102592.66;;;18.20;45.12
80202;BME280;69521;54.454;9.928;2023-05-20T13:41:28;102579.00;;;18.39;44.63
80202;BME280;69521;54.454;9.928;2023-05-20T13:43:54;102585.09;;;18.13;45.47
80202;BME280;69521;54.454;9.928;2023-05-20T13:46:20;102582.19;;;18.71;44.80
80202;BME280;69521;54.454;9.928;2023-05-20T13:48:46;102581.06;;;18.92;43.23
80202;BME280;69521;54.454;9.928;2023-05-20T13:51:11;102581.06;;;18.64;44.08
80202;BME280;69521;54.454;9.928;2023-05-20T13:53:39;102569.38;;;18.44;44.54
80202;BME280;69521;54.454;9.928;2023-05-20T13:56:04;102571.63;;;18.22;45.75
80202;BME280;69521;54.454;9.928;2023-05-20T13:58:33;102579.72;;;17.85;46.62
80202;BME280;69521;54.454;9.928;2023-05-20T14:00:58;102559.09;;;17.53;47.95
80202;BME280;69521;54.454;9.928;2023-05-20T14:03:24;102557.63;;;17.97;48.30
80202;BME280;69521;54.454;9.928;2023-05-20T14:05:49;102567.75;;;18.24;45.87
80202;BME280;69521;54.454;9.928;2023-05-20T14:08:25;102561.53;;;18.32;47.32
80202;BME280;69521;54.454;9.928;2023-05-20T14:10:50;102550.50;;;18.33;46.25
80202;BME280;69521;54.454;9.928;2023-05-20T14:13:20;102554.72;;;18.08;46.51
80202;BME280;69521;54.454;9.928;2023-05-20T14:15:45;102537.06;;;17.37;46.18
80202;BME280;69521;54.454;9.928;2023-05-20T14:18:11;102548.06;;;17.74;47.06
80202;BME280;69521;54.454;9.928;2023-05-20T14:20:36;102532.38;;;18.05;47.66
80202;BME280;69521;54.454;9.928;2023-05-20T14:23:04;102542.47;;;18.32;46.19
80202;BME280;69521;54.454;9.928;2023-05-20T14:25:31;102537.16;;;17.83;46.34
80202;BME280;69521;54.454;9.928;2023-05-20T14:28:01;102525.94;;;17.96;46.19
80202;BME280;69521;54.454;9.928;2023-05-20T14:30:29;102536.97;;;18.04;45.04
80202;BME280;69521;54.454;9.928;2023-05-20T14:32:57;102537.69;;;17.97;46.75
80202;BME280;69521;54.454;9.928;2023-05-20T14:35:22;102535.38;;;18.02;46.47
80202;BME280;69521;54.454;9.928;2023-05-20T14:37:48;102528.16;;;17.73;44.39
80202;BME280;69521;54.454;9.928;2023-05-20T14:40:13;102542.34;;;17.58;47.15
80202;BME280;69521;54.454;9.928;2023-05-20T14:42:39;102520.94;;;17.92;45.87
80202;BME280;69521;54.454;9.928;2023-05-20T14:45:05;102513.16;;;17.40;45.74
80202;BME280;69521;54.454;9.928;2023-05-20T14:47:31;102531.44;;;17.29;46.33
80202;BME280;69521;54.454;9.928;2023-05-20T14:49:57;102535.59;;;17.23;45.45
80202;BME280;69521;54.454;9.928;2023-05-20T14:52:25;102541.19;;;17.22;45.65
80202;BME280;69521;54.454;9.928;2023-05-20T14:54:50;102518.41;;;16.94;45.44
80202;BME280;69521;54.454;9.928;2023-05-20T14:57:15;102516.28;;;17.07;45.25
80202;BME280;69521;54.454;9.928;2023-05-20T14:59:41;102530.59;;;17.09;45.72
80202;BME280;69521;54.454;9.928;2023-05-20T15:02:07;102522.72;;;17.25;45.94
80202;BME280;69521;54.454;9.928;2023-05-20T15:04:33;102507.69;;;17.21;44.81